HETCH HETCHY (HTH)

Elevation: 3870' · TUOLUMNE R basin · Operator: Hetch Hetchy Water and Power

Provisional data, subject to change.
Query executed Tuesday at 18:37:41   clock

Select a sensor type for a plot of data.
Note: Reservoir Flows are daily averages.

Earlier

Date RES ELE    STORAGE    RES CHG    OUTFLOW    INFLOW    PPT INC    RAIN    PPTINC4   
 FEET   AF   AF   CFS   CFS   INCHES   INCHES   INCHES  
04/27/2015 -- 256438 -- 542 -- 0.00 17.72 0.00
04/28/2015 -- 258355 -- 544 -- 0.00 17.72 0.00
04/29/2015 -- 260280 -- 544 -- 0.00 17.72 0.00
04/30/2015 -- 262205 -- 544 -- 0.00 17.72 0.00
05/01/2015 -- 264136 -- 541 -- 0.00 17.72 0.00
05/02/2015 -- 266248 -- 520 -- 0.00 17.72 0.00
05/03/2015 -- 268193 -- 516 -- 0.00 17.72 0.00
05/04/2015 -- 269963 -- 503 -- 0.00 17.72 0.00
05/05/2015 -- 271564 -- 512 -- 0.00 17.72 0.00
05/06/2015 -- 272632 -- 512 -- 0.00 17.72 0.00
05/07/2015 -- 273700 -- 52 -- 0.15 17.87 0.00
05/08/2015 -- 274774 -- 551 -- 0.10 17.97 1.06
05/09/2015 -- 276390 -- 549 -- 0.01 17.98 0.01
05/10/2015 -- 278730 -- 532 -- 0.00 17.98 0.00
05/11/2015 -- 281262 -- 538 -- 0.00 17.98 0.00
05/12/2015 -- 283438 -- 556 -- 0.00 17.98 0.00
05/13/2015 -- 285258 -- 519 -- 0.00 17.98 0.00
05/14/2015 -- 286350 -- 509 -- 0.00 17.98 0.00
05/15/2015 -- 287631 -- 436 -- 0.39 18.37 0.33
05/16/2015 -- 288729 -- 423 -- 0.13 18.50 0.12
05/17/2015 -- 290010 -- 461 -- 0.00 18.50 0.01
05/18/2015 -- 291474 -- 443 -- 0.25 18.75 0.22
05/19/2015 -- 292576 -- 439 -- 0.02 18.77 0.02
05/20/2015 -- 293496 -- 418 -- 0.00 18.77 0.00
05/21/2015 -- 294416 -- 427 -- 0.00 18.77 0.00
05/22/2015 -- -- -- -- -- 0.53 19.30 0.48
05/23/2015 -- -- -- -- -- 0.15 19.45 0.11
05/24/2015 -- -- -- -- -- 0.38 19.83 0.37
05/25/2015 -- -- -- -- -- -- 19.83 0.00
05/26/2015 -- -- -- -- -- -- -- 0.00

Later | Latest

Warning! This data is preliminary and subject to revision.

Show HTH Map | Plot HTH Data | 1 Month HTH Data | Real-Time HTH Data | HTH Info